sensor_id;sensor_type;location;lat;lon;timestamp;P1;durP1;ratioP1;P2;durP2;ratioP2
20391;SDS011;10355;53.688;10.078;2022-10-16T00:00:34;3.97;;;2.40;;
20391;SDS011;10355;53.688;10.078;2022-10-16T00:03:17;4.85;;;2.60;;
20391;SDS011;10355;53.688;10.078;2022-10-16T00:06:01;5.40;;;3.05;;
20391;SDS011;10355;53.688;10.078;2022-10-16T00:08:44;6.20;;;3.10;;
20391;SDS011;10355;53.688;10.078;2022-10-16T00:11:28;4.55;;;2.47;;
20391;SDS011;10355;53.688;10.078;2022-10-16T00:14:12;5.70;;;2.88;;
20391;SDS011;10355;53.688;10.078;2022-10-16T00:16:55;4.28;;;2.50;;
20391;SDS011;10355;53.688;10.078;2022-10-16T00:19:38;3.53;;;2.55;;
20391;SDS011;10355;53.688;10.078;2022-10-16T00:22:22;3.15;;;2.20;;
20391;SDS011;10355;53.688;10.078;2022-10-16T00:25:05;4.07;;;2.20;;
20391;SDS011;10355;53.688;10.078;2022-10-16T00:27:48;5.22;;;2.25;;
20391;SDS011;10355;53.688;10.078;2022-10-16T00:30:31;3.70;;;1.95;;
20391;SDS011;10355;53.688;10.078;2022-10-16T00:33:14;4.20;;;2.20;;
20391;SDS011;10355;53.688;10.078;2022-10-16T00:35:57;5.70;;;2.20;;
20391;SDS011;10355;53.688;10.078;2022-10-16T00:38:42;4.53;;;2.05;;
20391;SDS011;10355;53.688;10.078;2022-10-16T00:41:24;5.97;;;1.77;;
20391;SDS011;10355;53.688;10.078;2022-10-16T00:47:07;4.97;;;1.40;;
20391;SDS011;10355;53.688;10.078;2022-10-16T00:49:51;2.85;;;1.65;;
20391;SDS011;10355;53.688;10.078;2022-10-16T00:52:35;3.75;;;1.33;;
20391;SDS011;10355;53.688;10.078;2022-10-16T00:55:21;3.53;;;1.55;;
20391;SDS011;10355;53.688;10.078;2022-10-16T00:58:04;3.58;;;1.27;;
20391;SDS011;10355;53.688;10.078;2022-10-16T01:00:46;3.78;;;1.30;;
20391;SDS011;10355;53.688;10.078;2022-10-16T01:03:30;1.65;;;1.00;;
20391;SDS011;10355;53.688;10.078;2022-10-16T01:06:19;3.28;;;1.40;;
20391;SDS011;10355;53.688;10.078;2022-10-16T01:09:11;4.25;;;1.15;;
20391;SDS011;10355;53.688;10.078;2022-10-16T01:12:01;2.08;;;1.02;;
20391;SDS011;10355;53.688;10.078;2022-10-16T01:14:48;3.83;;;1.13;;
20391;SDS011;10355;53.688;10.078;2022-10-16T01:17:37;2.55;;;1.10;;
20391;SDS011;10355;53.688;10.078;2022-10-16T01:20:24;2.17;;;1.02;;
20391;SDS011;10355;53.688;10.078;2022-10-16T01:23:10;1.33;;;0.85;;
20391;SDS011;10355;53.688;10.078;2022-10-16T01:26:10;1.88;;;0.90;;
20391;SDS011;10355;53.688;10.078;2022-10-16T01:28:56;1.95;;;1.15;;
20391;SDS011;10355;53.688;10.078;2022-10-16T01:31:40;3.47;;;0.80;;
20391;SDS011;10355;53.688;10.078;2022-10-16T01:34:25;3.20;;;0.90;;
20391;SDS011;10355;53.688;10.078;2022-10-16T01:37:12;1.98;;;0.80;;
20391;SDS011;10355;53.688;10.078;2022-10-16T01:39:58;2.45;;;1.00;;
20391;SDS011;10355;53.688;10.078;2022-10-16T01:42:41;3.25;;;1.02;;
20391;SDS011;10355;53.688;10.078;2022-10-16T01:45:26;1.83;;;0.90;;
20391;SDS011;10355;53.688;10.078;2022-10-16T01:48:11;3.97;;;1.00;;
20391;SDS011;10355;53.688;10.078;2022-10-16T01:50:55;1.00;;;0.88;;
20391;SDS011;10355;53.688;10.078;2022-10-16T01:53:39;1.73;;;0.80;;
20391;SDS011;10355;53.688;10.078;2022-10-16T01:56:22;2.83;;;0.65;;
20391;SDS011;10355;53.688;10.078;2022-10-16T01:59:07;2.28;;;0.60;;
20391;SDS011;10355;53.688;10.078;2022-10-16T02:01:54;4.22;;;1.25;;
20391;SDS011;10355;53.688;10.078;2022-10-16T02:04:39;2.75;;;0.80;;
20391;SDS011;10355;53.688;10.078;2022-10-16T02:07:22;1.25;;;0.75;;
20391;SDS011;10355;53.688;10.078;2022-10-16T02:10:05;6.32;;;0.75;;
20391;SDS011;10355;53.688;10.078;2022-10-16T02:12:49;2.63;;;0.93;;
20391;SDS011;10355;53.688;10.078;2022-10-16T02:15:33;3.10;;;1.15;;
20391;SDS011;10355;53.688;10.078;2022-10-16T02:18:17;2.58;;;0.90;;
20391;SDS011;10355;53.688;10.078;2022-10-16T02:21:01;2.40;;;0.85;;
20391;SDS011;10355;53.688;10.078;2022-10-16T02:23:45;2.10;;;0.93;;
20391;SDS011;10355;53.688;10.078;2022-10-16T02:26:33;2.25;;;0.75;;
20391;SDS011;10355;53.688;10.078;2022-10-16T02:29:19;1.77;;;0.60;;
20391;SDS011;10355;53.688;10.078;2022-10-16T02:32:03;3.00;;;0.80;;
20391;SDS011;10355;53.688;10.078;2022-10-16T02:34:48;2.10;;;0.80;;
20391;SDS011;10355;53.688;10.078;2022-10-16T02:37:31;1.55;;;0.73;;
20391;SDS011;10355;53.688;10.078;2022-10-16T02:40:14;2.10;;;0.90;;
20391;SDS011;10355;53.688;10.078;2022-10-16T02:43:02;1.60;;;0.70;;
20391;SDS011;10355;53.688;10.078;2022-10-16T02:45:46;1.77;;;0.90;;
20391;SDS011;10355;53.688;10.078;2022-10-16T02:48:28;3.60;;;0.90;;
20391;SDS011;10355;53.688;10.078;2022-10-16T02:51:12;1.42;;;0.70;;
20391;SDS011;10355;53.688;10.078;2022-10-16T02:53:55;1.08;;;0.73;;
20391;SDS011;10355;53.688;10.078;2022-10-16T02:56:38;3.25;;;1.00;;
20391;SDS011;10355;53.688;10.078;2022-10-16T02:59:21;3.65;;;0.93;;
20391;SDS011;10355;53.688;10.078;2022-10-16T03:02:04;1.77;;;0.70;;
20391;SDS011;10355;53.688;10.078;2022-10-16T03:04:47;2.97;;;0.80;;
20391;SDS011;10355;53.688;10.078;2022-10-16T03:07:31;1.15;;;0.82;;
20391;SDS011;10355;53.688;10.078;2022-10-16T03:10:14;2.63;;;0.85;;
20391;SDS011;10355;53.688;10.078;2022-10-16T03:12:56;2.63;;;0.70;;
20391;SDS011;10355;53.688;10.078;2022-10-16T03:15:39;4.40;;;0.82;;
20391;SDS011;10355;53.688;10.078;2022-10-16T03:18:22;1.35;;;0.70;;
20391;SDS011;10355;53.688;10.078;2022-10-16T03:21:05;1.38;;;0.60;;
20391;SDS011;10355;53.688;10.078;2022-10-16T03:23:49;2.80;;;0.70;;
20391;SDS011;10355;53.688;10.078;2022-10-16T03:26:31;2.28;;;0.75;;
20391;SDS011;10355;53.688;10.078;2022-10-16T03:29:14;2.17;;;0.70;;
20391;SDS011;10355;53.688;10.078;2022-10-16T03:31:57;4.55;;;0.80;;
20391;SDS011;10355;53.688;10.078;2022-10-16T03:34:40;2.08;;;0.70;;
20391;SDS011;10355;53.688;10.078;2022-10-16T03:37:23;3.17;;;0.85;;
20391;SDS011;10355;53.688;10.078;2022-10-16T03:40:08;1.70;;;0.82;;
20391;SDS011;10355;53.688;10.078;2022-10-16T03:42:51;3.92;;;0.85;;
20391;SDS011;10355;53.688;10.078;2022-10-16T03:45:35;3.17;;;0.70;;
20391;SDS011;10355;53.688;10.078;2022-10-16T03:48:19;2.25;;;0.77;;
20391;SDS011;10355;53.688;10.078;2022-10-16T03:51:02;3.72;;;0.65;;
20391;SDS011;10355;53.688;10.078;2022-10-16T03:53:44;3.72;;;0.80;;
20391;SDS011;10355;53.688;10.078;2022-10-16T03:56:28;3.88;;;0.73;;
20391;SDS011;10355;53.688;10.078;2022-10-16T03:59:11;1.40;;;0.73;;
20391;SDS011;10355;53.688;10.078;2022-10-16T04:01:54;2.53;;;0.85;;
20391;SDS011;10355;53.688;10.078;2022-10-16T04:04:36;2.97;;;0.82;;
20391;SDS011;10355;53.688;10.078;2022-10-16T04:07:19;4.75;;;0.63;;
20391;SDS011;10355;53.688;10.078;2022-10-16T04:10:02;1.80;;;0.70;;
20391;SDS011;10355;53.688;10.078;2022-10-16T04:12:46;2.45;;;0.70;;
20391;SDS011;10355;53.688;10.078;2022-10-16T04:15:29;1.45;;;0.60;;
20391;SDS011;10355;53.688;10.078;2022-10-16T04:18:11;2.05;;;0.60;;
20391;SDS011;10355;53.688;10.078;2022-10-16T04:20:54;2.80;;;0.80;;
20391;SDS011;10355;53.688;10.078;2022-10-16T04:23:37;4.32;;;0.80;;
20391;SDS011;10355;53.688;10.078;2022-10-16T04:26:19;1.00;;;0.60;;
20391;SDS011;10355;53.688;10.078;2022-10-16T04:29:03;2.35;;;0.90;;
20391;SDS011;10355;53.688;10.078;2022-10-16T04:31:47;2.00;;;0.60;;
20391;SDS011;10355;53.688;10.078;2022-10-16T04:34:30;3.20;;;0.70;;
20391;SDS011;10355;53.688;10.078;2022-10-16T04:37:12;4.20;;;0.60;;
20391;SDS011;10355;53.688;10.078;2022-10-16T04:39:55;1.38;;;0.75;;
20391;SDS011;10355;53.688;10.078;2022-10-16T04:42:38;1.73;;;0.82;;
20391;SDS011;10355;53.688;10.078;2022-10-16T04:45:22;1.70;;;0.77;;
20391;SDS011;10355;53.688;10.078;2022-10-16T04:48:05;2.28;;;0.68;;
20391;SDS011;10355;53.688;10.078;2022-10-16T04:50:48;3.78;;;0.73;;
20391;SDS011;10355;53.688;10.078;2022-10-16T04:53:35;1.35;;;0.52;;
20391;SDS011;10355;53.688;10.078;2022-10-16T04:56:18;1.08;;;0.50;;
20391;SDS011;10355;53.688;10.078;2022-10-16T04:59:01;1.58;;;0.60;;
20391;SDS011;10355;53.688;10.078;2022-10-16T05:01:45;2.28;;;0.60;;
20391;SDS011;10355;53.688;10.078;2022-10-16T05:04:28;2.55;;;0.73;;
20391;SDS011;10355;53.688;10.078;2022-10-16T05:07:11;3.45;;;0.60;;
20391;SDS011;10355;53.688;10.078;2022-10-16T05:09:54;1.52;;;0.70;;
20391;SDS011;10355;53.688;10.078;2022-10-16T05:12:37;1.25;;;0.70;;
20391;SDS011;10355;53.688;10.078;2022-10-16T05:15:19;1.20;;;0.60;;
20391;SDS011;10355;53.688;10.078;2022-10-16T05:18:03;2.35;;;0.75;;
20391;SDS011;10355;53.688;10.078;2022-10-16T05:20:46;1.58;;;0.85;;
20391;SDS011;10355;53.688;10.078;2022-10-16T05:23:29;1.95;;;0.70;;
20391;SDS011;10355;53.688;10.078;2022-10-16T05:26:12;2.10;;;0.82;;
20391;SDS011;10355;53.688;10.078;2022-10-16T05:28:54;5.95;;;0.85;;
20391;SDS011;10355;53.688;10.078;2022-10-16T05:31:37;2.60;;;1.10;;
20391;SDS011;10355;53.688;10.078;2022-10-16T05:34:21;2.35;;;0.80;;
20391;SDS011;10355;53.688;10.078;2022-10-16T05:37:04;4.63;;;0.80;;
20391;SDS011;10355;53.688;10.078;2022-10-16T05:39:47;2.15;;;0.90;;
20391;SDS011;10355;53.688;10.078;2022-10-16T05:42:30;2.47;;;1.00;;
20391;SDS011;10355;53.688;10.078;2022-10-16T05:45:13;1.35;;;0.80;;
20391;SDS011;10355;53.688;10.078;2022-10-16T05:47:55;3.78;;;1.08;;
20391;SDS011;10355;53.688;10.078;2022-10-16T05:50:40;3.65;;;1.02;;
20391;SDS011;10355;53.688;10.078;2022-10-16T05:53:22;2.25;;;1.00;;
20391;SDS011;10355;53.688;10.078;2022-10-16T05:56:07;1.70;;;0.70;;
20391;SDS011;10355;53.688;10.078;2022-10-16T05:58:52;3.97;;;1.10;;
20391;SDS011;10355;53.688;10.078;2022-10-16T06:01:34;3.00;;;1.10;;
20391;SDS011;10355;53.688;10.078;2022-10-16T06:04:17;3.38;;;1.00;;
20391;SDS011;10355;53.688;10.078;2022-10-16T06:07:01;6.68;;;1.15;;
20391;SDS011;10355;53.688;10.078;2022-10-16T06:09:44;4.72;;;1.20;;
20391;SDS011;10355;53.688;10.078;2022-10-16T06:12:29;2.95;;;1.00;;
20391;SDS011;10355;53.688;10.078;2022-10-16T06:15:12;3.65;;;1.13;;
20391;SDS011;10355;53.688;10.078;2022-10-16T06:17:55;3.47;;;1.02;;
20391;SDS011;10355;53.688;10.078;2022-10-16T06:20:38;2.38;;;1.08;;
20391;SDS011;10355;53.688;10.078;2022-10-16T06:23:22;2.53;;;0.98;;
20391;SDS011;10355;53.688;10.078;2022-10-16T06:26:05;2.60;;;1.00;;
20391;SDS011;10355;53.688;10.078;2022-10-16T06:28:48;2.28;;;0.90;;
20391;SDS011;10355;53.688;10.078;2022-10-16T06:31:31;2.05;;;0.77;;
20391;SDS011;10355;53.688;10.078;2022-10-16T06:34:15;2.65;;;0.93;;
20391;SDS011;10355;53.688;10.078;2022-10-16T06:36:57;3.78;;;0.80;;
20391;SDS011;10355;53.688;10.078;2022-10-16T06:39:41;3.00;;;1.10;;
20391;SDS011;10355;53.688;10.078;2022-10-16T06:42:24;3.70;;;1.00;;
20391;SDS011;10355;53.688;10.078;2022-10-16T06:45:07;1.20;;;0.73;;
20391;SDS011;10355;53.688;10.078;2022-10-16T06:47:50;1.70;;;0.90;;
20391;SDS011;10355;53.688;10.078;2022-10-16T06:50:33;4.13;;;0.90;;
20391;SDS011;10355;53.688;10.078;2022-10-16T06:53:16;2.20;;;0.68;;
20391;SDS011;10355;53.688;10.078;2022-10-16T06:56:07;3.47;;;1.00;;
20391;SDS011;10355;53.688;10.078;2022-10-16T06:58:50;2.72;;;1.00;;
20391;SDS011;10355;53.688;10.078;2022-10-16T07:01:33;2.03;;;0.82;;
20391;SDS011;10355;53.688;10.078;2022-10-16T07:04:16;2.50;;;1.00;;
20391;SDS011;10355;53.688;10.078;2022-10-16T07:06:59;3.08;;;1.20;;
20391;SDS011;10355;53.688;10.078;2022-10-16T07:09:47;2.75;;;0.85;;
20391;SDS011;10355;53.688;10.078;2022-10-16T07:12:31;2.22;;;0.70;;
20391;SDS011;10355;53.688;10.078;2022-10-16T07:15:14;3.60;;;0.80;;
20391;SDS011;10355;53.688;10.078;2022-10-16T07:17:56;1.00;;;0.80;;
20391;SDS011;10355;53.688;10.078;2022-10-16T07:20:40;3.17;;;1.02;;
20391;SDS011;10355;53.688;10.078;2022-10-16T07:23:22;1.17;;;0.80;;
20391;SDS011;10355;53.688;10.078;2022-10-16T07:26:05;2.33;;;1.10;;
20391;SDS011;10355;53.688;10.078;2022-10-16T07:28:49;2.83;;;0.95;;
20391;SDS011;10355;53.688;10.078;2022-10-16T07:31:33;2.42;;;1.00;;
20391;SDS011;10355;53.688;10.078;2022-10-16T07:34:16;3.97;;;1.00;;
20391;SDS011;10355;53.688;10.078;2022-10-16T07:36:59;3.13;;;1.30;;
20391;SDS011;10355;53.688;10.078;2022-10-16T07:39:42;3.17;;;1.00;;
20391;SDS011;10355;53.688;10.078;2022-10-16T07:42:26;1.92;;;1.00;;
20391;SDS011;10355;53.688;10.078;2022-10-16T07:45:11;2.33;;;1.00;;
20391;SDS011;10355;53.688;10.078;2022-10-16T07:47:54;1.27;;;1.10;;
20391;SDS011;10355;53.688;10.078;2022-10-16T07:50:37;1.67;;;0.80;;
20391;SDS011;10355;53.688;10.078;2022-10-16T07:53:20;3.13;;;1.35;;
20391;SDS011;10355;53.688;10.078;2022-10-16T07:56:07;2.80;;;1.10;;
20391;SDS011;10355;53.688;10.078;2022-10-16T07:58:50;2.20;;;1.13;;
20391;SDS011;10355;53.688;10.078;2022-10-16T08:01:34;3.22;;;1.08;;
20391;SDS011;10355;53.688;10.078;2022-10-16T08:04:17;1.58;;;1.10;;
20391;SDS011;10355;53.688;10.078;2022-10-16T08:07:00;3.00;;;1.10;;
20391;SDS011;10355;53.688;10.078;2022-10-16T08:09:43;3.25;;;1.30;;
20391;SDS011;10355;53.688;10.078;2022-10-16T08:12:26;2.17;;;1.17;;
20391;SDS011;10355;53.688;10.078;2022-10-16T08:15:09;2.15;;;1.10;;
20391;SDS011;10355;53.688;10.078;2022-10-16T08:17:57;2.28;;;1.13;;
20391;SDS011;10355;53.688;10.078;2022-10-16T08:20:41;1.65;;;1.10;;
20391;SDS011;10355;53.688;10.078;2022-10-16T08:23:24;3.15;;;1.08;;
20391;SDS011;10355;53.688;10.078;2022-10-16T08:26:08;1.70;;;1.13;;
20391;SDS011;10355;53.688;10.078;2022-10-16T08:28:51;4.03;;;1.15;;
20391;SDS011;10355;53.688;10.078;2022-10-16T08:31:34;1.95;;;1.10;;
20391;SDS011;10355;53.688;10.078;2022-10-16T08:34:18;4.95;;;1.42;;
20391;SDS011;10355;53.688;10.078;2022-10-16T08:37:01;2.22;;;1.40;;
20391;SDS011;10355;53.688;10.078;2022-10-16T08:39:44;2.92;;;1.15;;
20391;SDS011;10355;53.688;10.078;2022-10-16T08:42:30;4.95;;;1.40;;
20391;SDS011;10355;53.688;10.078;2022-10-16T08:45:19;2.38;;;1.30;;
20391;SDS011;10355;53.688;10.078;2022-10-16T08:48:06;2.88;;;1.27;;
20391;SDS011;10355;53.688;10.078;2022-10-16T08:50:52;3.72;;;0.90;;
20391;SDS011;10355;53.688;10.078;2022-10-16T08:53:36;3.08;;;1.40;;
20391;SDS011;10355;53.688;10.078;2022-10-16T08:56:20;2.35;;;1.17;;
20391;SDS011;10355;53.688;10.078;2022-10-16T08:59:03;2.22;;;1.20;;
20391;SDS011;10355;53.688;10.078;2022-10-16T09:01:47;3.55;;;1.50;;
20391;SDS011;10355;53.688;10.078;2022-10-16T09:04:47;3.38;;;1.40;;
20391;SDS011;10355;53.688;10.078;2022-10-16T09:07:39;2.67;;;1.10;;
20391;SDS011;10355;53.688;10.078;2022-10-16T09:10:29;4.40;;;1.30;;
20391;SDS011;10355;53.688;10.078;2022-10-16T09:13:17;4.47;;;1.10;;
20391;SDS011;10355;53.688;10.078;2022-10-16T09:16:03;3.17;;;1.10;;
20391;SDS011;10355;53.688;10.078;2022-10-16T09:18:48;2.13;;;1.10;;
20391;SDS011;10355;53.688;10.078;2022-10-16T09:21:35;3.00;;;1.00;;
20391;SDS011;10355;53.688;10.078;2022-10-16T09:24:20;4.22;;;1.00;;
20391;SDS011;10355;53.688;10.078;2022-10-16T09:27:10;2.10;;;1.00;;
20391;SDS011;10355;53.688;10.078;2022-10-16T09:29:53;2.47;;;1.00;;
20391;SDS011;10355;53.688;10.078;2022-10-16T09:32:40;2.47;;;0.93;;
20391;SDS011;10355;53.688;10.078;2022-10-16T09:35:25;4.63;;;1.00;;
20391;SDS011;10355;53.688;10.078;2022-10-16T09:38:09;2.90;;;0.88;;
20391;SDS011;10355;53.688;10.078;2022-10-16T09:41:16;3.13;;;0.70;;
20391;SDS011;10355;53.688;10.078;2022-10-16T09:44:00;1.15;;;0.80;;
20391;SDS011;10355;53.688;10.078;2022-10-16T09:46:44;1.15;;;0.75;;
20391;SDS011;10355;53.688;10.078;2022-10-16T09:49:27;2.17;;;0.88;;
20391;SDS011;10355;53.688;10.078;2022-10-16T09:52:11;2.20;;;0.90;;
20391;SDS011;10355;53.688;10.078;2022-10-16T09:54:54;2.38;;;0.80;;
20391;SDS011;10355;53.688;10.078;2022-10-16T09:57:47;2.38;;;0.68;;
20391;SDS011;10355;53.688;10.078;2022-10-16T10:00:30;1.08;;;0.77;;
20391;SDS011;10355;53.688;10.078;2022-10-16T10:03:15;5.65;;;1.05;;
20391;SDS011;10355;53.688;10.078;2022-10-16T10:06:15;1.95;;;0.75;;
20391;SDS011;10355;53.688;10.078;2022-10-16T10:09:00;2.45;;;0.70;;
20391;SDS011;10355;53.688;10.078;2022-10-16T10:11:46;1.25;;;0.60;;
20391;SDS011;10355;53.688;10.078;2022-10-16T10:14:32;2.92;;;0.80;;
20391;SDS011;10355;53.688;10.078;2022-10-16T10:17:18;2.10;;;0.90;;
20391;SDS011;10355;53.688;10.078;2022-10-16T10:20:13;2.40;;;0.55;;
20391;SDS011;10355;53.688;10.078;2022-10-16T10:22:58;3.70;;;0.82;;
20391;SDS011;10355;53.688;10.078;2022-10-16T10:25:47;2.65;;;1.05;;
20391;SDS011;10355;53.688;10.078;2022-10-16T10:28:38;1.33;;;0.70;;
20391;SDS011;10355;53.688;10.078;2022-10-16T10:31:27;3.42;;;1.10;;
20391;SDS011;10355;53.688;10.078;2022-10-16T10:34:17;2.38;;;0.65;;
20391;SDS011;10355;53.688;10.078;2022-10-16T10:37:08;3.33;;;0.70;;
20391;SDS011;10355;53.688;10.078;2022-10-16T10:39:59;2.63;;;0.80;;
20391;SDS011;10355;53.688;10.078;2022-10-16T10:42:49;1.73;;;0.60;;
20391;SDS011;10355;53.688;10.078;2022-10-16T10:45:36;1.33;;;0.60;;
20391;SDS011;10355;53.688;10.078;2022-10-16T10:48:45;1.85;;;0.60;;
20391;SDS011;10355;53.688;10.078;2022-10-16T10:51:31;1.83;;;0.60;;
20391;SDS011;10355;53.688;10.078;2022-10-16T10:54:20;1.95;;;0.60;;
20391;SDS011;10355;53.688;10.078;2022-10-16T10:57:07;2.10;;;0.60;;
20391;SDS011;10355;53.688;10.078;2022-10-16T10:59:54;4.55;;;0.85;;
20391;SDS011;10355;53.688;10.078;2022-10-16T11:02:40;3.10;;;0.70;;
20391;SDS011;10355;53.688;10.078;2022-10-16T11:05:28;5.00;;;0.70;;
20391;SDS011;10355;53.688;10.078;2022-10-16T11:08:14;2.20;;;0.80;;
20391;SDS011;10355;53.688;10.078;2022-10-16T11:10:58;5.90;;;0.85;;
20391;SDS011;10355;53.688;10.078;2022-10-16T11:13:43;2.38;;;0.50;;
20391;SDS011;10355;53.688;10.078;2022-10-16T11:16:29;2.78;;;0.60;;
20391;SDS011;10355;53.688;10.078;2022-10-16T11:19:17;3.78;;;0.65;;
20391;SDS011;10355;53.688;10.078;2022-10-16T11:22:03;3.92;;;0.80;;
20391;SDS011;10355;53.688;10.078;2022-10-16T11:24:47;2.30;;;0.70;;
20391;SDS011;10355;53.688;10.078;2022-10-16T11:27:34;1.30;;;0.57;;
20391;SDS011;10355;53.688;10.078;2022-10-16T11:30:19;4.18;;;0.70;;
20391;SDS011;10355;53.688;10.078;2022-10-16T11:33:04;3.45;;;0.77;;
20391;SDS011;10355;53.688;10.078;2022-10-16T11:35:53;3.85;;;0.80;;
20391;SDS011;10355;53.688;10.078;2022-10-16T11:38:38;2.78;;;0.45;;
20391;SDS011;10355;53.688;10.078;2022-10-16T11:41:29;2.13;;;0.60;;
20391;SDS011;10355;53.688;10.078;2022-10-16T11:44:18;1.67;;;0.57;;
20391;SDS011;10355;53.688;10.078;2022-10-16T11:47:07;4.93;;;0.57;;
20391;SDS011;10355;53.688;10.078;2022-10-16T11:50:13;1.65;;;0.60;;
20391;SDS011;10355;53.688;10.078;2022-10-16T11:53:01;1.58;;;0.47;;
20391;SDS011;10355;53.688;10.078;2022-10-16T11:55:47;2.42;;;0.63;;
20391;SDS011;10355;53.688;10.078;2022-10-16T11:58:30;4.72;;;0.50;;
20391;SDS011;10355;53.688;10.078;2022-10-16T12:01:17;4.88;;;0.57;;
20391;SDS011;10355;53.688;10.078;2022-10-16T12:04:06;1.65;;;0.50;;
20391;SDS011;10355;53.688;10.078;2022-10-16T12:06:55;3.95;;;0.50;;
20391;SDS011;10355;53.688;10.078;2022-10-16T12:09:40;3.05;;;0.63;;
20391;SDS011;10355;53.688;10.078;2022-10-16T12:12:26;4.05;;;0.68;;
20391;SDS011;10355;53.688;10.078;2022-10-16T12:15:19;3.03;;;0.90;;
20391;SDS011;10355;53.688;10.078;2022-10-16T12:18:22;3.20;;;0.52;;
20391;SDS011;10355;53.688;10.078;2022-10-16T12:21:06;3.03;;;0.60;;
20391;SDS011;10355;53.688;10.078;2022-10-16T12:23:50;1.65;;;0.57;;
20391;SDS011;10355;53.688;10.078;2022-10-16T12:26:33;5.00;;;0.52;;
20391;SDS011;10355;53.688;10.078;2022-10-16T12:29:23;1.35;;;0.40;;
20391;SDS011;10355;53.688;10.078;2022-10-16T12:32:20;4.50;;;0.63;;
20391;SDS011;10355;53.688;10.078;2022-10-16T12:35:25;3.28;;;0.80;;
20391;SDS011;10355;53.688;10.078;2022-10-16T12:38:15;3.50;;;0.57;;
20391;SDS011;10355;53.688;10.078;2022-10-16T12:40:58;2.40;;;0.73;;
20391;SDS011;10355;53.688;10.078;2022-10-16T12:43:42;2.15;;;0.40;;
20391;SDS011;10355;53.688;10.078;2022-10-16T12:46:37;4.53;;;0.90;;
20391;SDS011;10355;53.688;10.078;2022-10-16T12:49:22;3.28;;;0.60;;
20391;SDS011;10355;53.688;10.078;2022-10-16T12:55:04;2.58;;;0.60;;
20391;SDS011;10355;53.688;10.078;2022-10-16T12:57:53;6.28;;;0.50;;
20391;SDS011;10355;53.688;10.078;2022-10-16T13:00:41;1.27;;;0.40;;
20391;SDS011;10355;53.688;10.078;2022-10-16T13:03:31;3.30;;;0.63;;
20391;SDS011;10355;53.688;10.078;2022-10-16T13:06:20;4.68;;;0.63;;
20391;SDS011;10355;53.688;10.078;2022-10-16T13:09:16;2.15;;;0.50;;
20391;SDS011;10355;53.688;10.078;2022-10-16T13:12:11;2.10;;;0.50;;
20391;SDS011;10355;53.688;10.078;2022-10-16T13:15:01;4.05;;;0.60;;
20391;SDS011;10355;53.688;10.078;2022-10-16T13:17:49;3.30;;;0.70;;
20391;SDS011;10355;53.688;10.078;2022-10-16T13:20:38;2.63;;;0.60;;
20391;SDS011;10355;53.688;10.078;2022-10-16T13:23:24;4.63;;;0.73;;
20391;SDS011;10355;53.688;10.078;2022-10-16T13:26:10;3.83;;;0.80;;
20391;SDS011;10355;53.688;10.078;2022-10-16T13:28:58;2.10;;;0.52;;
20391;SDS011;10355;53.688;10.078;2022-10-16T13:31:42;2.78;;;0.95;;
20391;SDS011;10355;53.688;10.078;2022-10-16T13:34:25;3.22;;;0.50;;
20391;SDS011;10355;53.688;10.078;2022-10-16T13:37:16;1.63;;;0.47;;
20391;SDS011;10355;53.688;10.078;2022-10-16T13:40:04;3.03;;;0.50;;
20391;SDS011;10355;53.688;10.078;2022-10-16T13:42:50;3.03;;;0.57;;
20391;SDS011;10355;53.688;10.078;2022-10-16T13:45:33;3.80;;;0.57;;
20391;SDS011;10355;53.688;10.078;2022-10-16T13:48:16;3.45;;;0.88;;
20391;SDS011;10355;53.688;10.078;2022-10-16T13:50:59;3.00;;;0.70;;
20391;SDS011;10355;53.688;10.078;2022-10-16T13:53:44;2.35;;;0.70;;
20391;SDS011;10355;53.688;10.078;2022-10-16T13:56:28;3.53;;;0.50;;
20391;SDS011;10355;53.688;10.078;2022-10-16T13:59:22;3.00;;;0.70;;
20391;SDS011;10355;53.688;10.078;2022-10-16T14:02:06;2.58;;;0.55;;
20391;SDS011;10355;53.688;10.078;2022-10-16T14:04:51;2.75;;;0.60;;
20391;SDS011;10355;53.688;10.078;2022-10-16T14:07:34;1.25;;;0.47;;
20391;SDS011;10355;53.688;10.078;2022-10-16T14:10:23;6.80;;;0.70;;
20391;SDS011;10355;53.688;10.078;2022-10-16T14:13:07;1.75;;;0.50;;
20391;SDS011;10355;53.688;10.078;2022-10-16T14:15:55;4.68;;;0.60;;
20391;SDS011;10355;53.688;10.078;2022-10-16T14:18:40;2.72;;;0.70;;
20391;SDS011;10355;53.688;10.078;2022-10-16T14:21:23;1.83;;;0.63;;
20391;SDS011;10355;53.688;10.078;2022-10-16T14:24:11;4.13;;;0.60;;
20391;SDS011;10355;53.688;10.078;2022-10-16T14:26:56;3.72;;;0.60;;
20391;SDS011;10355;53.688;10.078;2022-10-16T14:29:39;3.47;;;0.68;;
20391;SDS011;10355;53.688;10.078;2022-10-16T14:32:23;1.20;;;0.30;;
20391;SDS011;10355;53.688;10.078;2022-10-16T14:35:11;1.83;;;0.60;;
20391;SDS011;10355;53.688;10.078;2022-10-16T14:38:04;5.25;;;0.65;;
20391;SDS011;10355;53.688;10.078;2022-10-16T14:40:48;0.93;;;0.38;;
20391;SDS011;10355;53.688;10.078;2022-10-16T14:43:33;2.80;;;0.60;;
20391;SDS011;10355;53.688;10.078;2022-10-16T14:46:17;1.80;;;0.60;;
20391;SDS011;10355;53.688;10.078;2022-10-16T14:49:03;7.45;;;0.88;;
20391;SDS011;10355;53.688;10.078;2022-10-16T14:51:47;2.67;;;0.60;;
20391;SDS011;10355;53.688;10.078;2022-10-16T14:54:29;3.80;;;0.70;;
20391;SDS011;10355;53.688;10.078;2022-10-16T14:57:15;1.67;;;0.50;;
20391;SDS011;10355;53.688;10.078;2022-10-16T15:00:00;2.88;;;0.60;;
20391;SDS011;10355;53.688;10.078;2022-10-16T15:02:43;2.28;;;0.65;;
20391;SDS011;10355;53.688;10.078;2022-10-16T15:05:26;2.90;;;0.70;;
20391;SDS011;10355;53.688;10.078;2022-10-16T15:08:09;3.88;;;0.80;;
20391;SDS011;10355;53.688;10.078;2022-10-16T15:10:53;2.78;;;0.50;;
20391;SDS011;10355;53.688;10.078;2022-10-16T15:13:36;4.82;;;0.75;;
20391;SDS011;10355;53.688;10.078;2022-10-16T15:16:21;1.52;;;0.52;;
20391;SDS011;10355;53.688;10.078;2022-10-16T15:19:04;3.28;;;0.70;;
20391;SDS011;10355;53.688;10.078;2022-10-16T15:21:46;3.90;;;0.65;;
20391;SDS011;10355;53.688;10.078;2022-10-16T15:24:30;3.00;;;0.70;;
20391;SDS011;10355;53.688;10.078;2022-10-16T15:27:13;3.30;;;0.60;;
20391;SDS011;10355;53.688;10.078;2022-10-16T15:29:56;4.68;;;0.60;;
20391;SDS011;10355;53.688;10.078;2022-10-16T15:32:40;3.08;;;0.73;;
20391;SDS011;10355;53.688;10.078;2022-10-16T15:35:23;4.28;;;0.65;;
20391;SDS011;10355;53.688;10.078;2022-10-16T15:38:06;5.57;;;0.73;;
20391;SDS011;10355;53.688;10.078;2022-10-16T15:40:49;2.35;;;0.60;;
20391;SDS011;10355;53.688;10.078;2022-10-16T15:43:33;3.20;;;0.80;;
20391;SDS011;10355;53.688;10.078;2022-10-16T15:46:17;8.43;;;0.95;;
20391;SDS011;10355;53.688;10.078;2022-10-16T15:49:03;2.42;;;0.52;;
20391;SDS011;10355;53.688;10.078;2022-10-16T15:51:46;4.57;;;0.73;;
20391;SDS011;10355;53.688;10.078;2022-10-16T15:54:29;3.45;;;0.47;;
20391;SDS011;10355;53.688;10.078;2022-10-16T15:57:12;2.85;;;0.70;;
20391;SDS011;10355;53.688;10.078;2022-10-16T15:59:55;2.58;;;0.75;;
20391;SDS011;10355;53.688;10.078;2022-10-16T16:02:37;2.28;;;0.40;;
20391;SDS011;10355;53.688;10.078;2022-10-16T16:05:22;2.63;;;0.65;;
20391;SDS011;10355;53.688;10.078;2022-10-16T16:08:05;5.47;;;0.75;;
20391;SDS011;10355;53.688;10.078;2022-10-16T16:10:56;6.05;;;0.70;;
20391;SDS011;10355;53.688;10.078;2022-10-16T16:13:39;4.03;;;0.80;;
20391;SDS011;10355;53.688;10.078;2022-10-16T16:16:22;2.90;;;0.68;;
20391;SDS011;10355;53.688;10.078;2022-10-16T16:19:05;3.75;;;0.80;;
20391;SDS011;10355;53.688;10.078;2022-10-16T16:21:53;3.47;;;0.65;;
20391;SDS011;10355;53.688;10.078;2022-10-16T16:24:36;3.88;;;0.70;;